sensor_id;sensor_type;location;lat;lon;timestamp;P1;durP1;ratioP1;P2;durP2;ratioP2
75854;SDS011;64502;59.976;30.316;2022-11-03T00:01:36;12.68;;;4.60;;
75854;SDS011;64502;59.976;30.316;2022-11-03T00:04:03;15.68;;;5.80;;
75854;SDS011;64502;59.976;30.316;2022-11-03T00:06:30;13.35;;;5.00;;
75854;SDS011;64502;59.976;30.316;2022-11-03T00:08:56;12.13;;;4.25;;
75854;SDS011;64502;59.976;30.316;2022-11-03T00:11:23;10.02;;;4.05;;
75854;SDS011;64502;59.976;30.316;2022-11-03T00:13:49;10.73;;;4.47;;
75854;SDS011;64502;59.976;30.316;2022-11-03T00:16:14;10.27;;;4.22;;
75854;SDS011;64502;59.976;30.316;2022-11-03T00:18:40;11.65;;;4.88;;
75854;SDS011;64502;59.976;30.316;2022-11-03T00:21:09;11.88;;;3.83;;
75854;SDS011;64502;59.976;30.316;2022-11-03T00:23:40;11.25;;;4.00;;
75854;SDS011;64502;59.976;30.316;2022-11-03T00:28:45;10.48;;;4.28;;
75854;SDS011;64502;59.976;30.316;2022-11-03T00:31:16;12.88;;;4.25;;
75854;SDS011;64502;59.976;30.316;2022-11-03T00:33:42;14.35;;;3.97;;
75854;SDS011;64502;59.976;30.316;2022-11-03T00:36:11;9.23;;;3.58;;
75854;SDS011;64502;59.976;30.316;2022-11-03T00:38:38;12.95;;;4.82;;
75854;SDS011;64502;59.976;30.316;2022-11-03T00:41:04;9.23;;;3.60;;
75854;SDS011;64502;59.976;30.316;2022-11-03T00:43:32;8.93;;;3.50;;
75854;SDS011;64502;59.976;30.316;2022-11-03T00:45:59;10.50;;;3.50;;
75854;SDS011;64502;59.976;30.316;2022-11-03T00:48:25;8.23;;;3.20;;
75854;SDS011;64502;59.976;30.316;2022-11-03T00:51:11;12.48;;;4.22;;
75854;SDS011;64502;59.976;30.316;2022-11-03T00:53:38;11.30;;;3.72;;
75854;SDS011;64502;59.976;30.316;2022-11-03T00:56:05;10.15;;;3.50;;
75854;SDS011;64502;59.976;30.316;2022-11-03T00:58:31;8.20;;;3.60;;
75854;SDS011;64502;59.976;30.316;2022-11-03T01:01:01;8.07;;;3.40;;
75854;SDS011;64502;59.976;30.316;2022-11-03T01:03:31;7.60;;;2.67;;
75854;SDS011;64502;59.976;30.316;2022-11-03T01:05:57;8.55;;;2.75;;
75854;SDS011;64502;59.976;30.316;2022-11-03T01:08:41;5.80;;;2.72;;
75854;SDS011;64502;59.976;30.316;2022-11-03T01:11:08;6.53;;;3.00;;
75854;SDS011;64502;59.976;30.316;2022-11-03T01:13:57;6.55;;;2.75;;
75854;SDS011;64502;59.976;30.316;2022-11-03T01:16:23;6.72;;;2.75;;
75854;SDS011;64502;59.976;30.316;2022-11-03T01:18:49;7.32;;;3.65;;
75854;SDS011;64502;59.976;30.316;2022-11-03T01:21:15;6.70;;;2.83;;
75854;SDS011;64502;59.976;30.316;2022-11-03T01:23:41;6.43;;;2.78;;
75854;SDS011;64502;59.976;30.316;2022-11-03T01:26:08;5.43;;;2.55;;
75854;SDS011;64502;59.976;30.316;2022-11-03T01:28:35;7.88;;;2.88;;
75854;SDS011;64502;59.976;30.316;2022-11-03T01:31:05;4.68;;;2.55;;
75854;SDS011;64502;59.976;30.316;2022-11-03T01:33:32;5.97;;;2.95;;
75854;SDS011;64502;59.976;30.316;2022-11-03T01:35:58;5.53;;;2.72;;
75854;SDS011;64502;59.976;30.316;2022-11-03T01:38:23;6.78;;;3.00;;
75854;SDS011;64502;59.976;30.316;2022-11-03T01:40:49;7.57;;;2.85;;
75854;SDS011;64502;59.976;30.316;2022-11-03T01:43:18;4.50;;;2.15;;
75854;SDS011;64502;59.976;30.316;2022-11-03T01:45:46;5.68;;;3.30;;
75854;SDS011;64502;59.976;30.316;2022-11-03T01:48:15;5.72;;;2.55;;
75854;SDS011;64502;59.976;30.316;2022-11-03T01:50:42;5.93;;;2.53;;
75854;SDS011;64502;59.976;30.316;2022-11-03T01:53:10;5.70;;;3.00;;
75854;SDS011;64502;59.976;30.316;2022-11-03T01:55:37;6.07;;;2.45;;
75854;SDS011;64502;59.976;30.316;2022-11-03T01:58:17;7.53;;;3.17;;
75854;SDS011;64502;59.976;30.316;2022-11-03T02:00:46;5.82;;;2.80;;
75854;SDS011;64502;59.976;30.316;2022-11-03T02:03:15;6.18;;;2.83;;
75854;SDS011;64502;59.976;30.316;2022-11-03T02:05:42;7.05;;;2.95;;
75854;SDS011;64502;59.976;30.316;2022-11-03T02:08:11;7.32;;;3.13;;
75854;SDS011;64502;59.976;30.316;2022-11-03T02:10:40;6.22;;;2.88;;
75854;SDS011;64502;59.976;30.316;2022-11-03T02:13:08;5.07;;;2.78;;
75854;SDS011;64502;59.976;30.316;2022-11-03T02:15:40;5.13;;;3.30;;
75854;SDS011;64502;59.976;30.316;2022-11-03T02:18:06;5.50;;;2.83;;
75854;SDS011;64502;59.976;30.316;2022-11-03T02:20:35;6.53;;;2.65;;
75854;SDS011;64502;59.976;30.316;2022-11-03T02:25:42;5.45;;;2.55;;
75854;SDS011;64502;59.976;30.316;2022-11-03T02:28:12;8.18;;;3.20;;
75854;SDS011;64502;59.976;30.316;2022-11-03T02:30:43;8.13;;;3.70;;
75854;SDS011;64502;59.976;30.316;2022-11-03T02:33:46;6.85;;;3.08;;
75854;SDS011;64502;59.976;30.316;2022-11-03T02:38:58;6.05;;;3.20;;
75854;SDS011;64502;59.976;30.316;2022-11-03T02:41:28;6.97;;;3.25;;
75854;SDS011;64502;59.976;30.316;2022-11-03T02:43:57;6.80;;;2.88;;
75854;SDS011;64502;59.976;30.316;2022-11-03T02:46:24;6.18;;;3.15;;
75854;SDS011;64502;59.976;30.316;2022-11-03T02:48:51;6.75;;;3.63;;
75854;SDS011;64502;59.976;30.316;2022-11-03T02:51:17;6.45;;;3.42;;
75854;SDS011;64502;59.976;30.316;2022-11-03T02:53:44;7.97;;;3.92;;
75854;SDS011;64502;59.976;30.316;2022-11-03T02:56:33;7.28;;;3.78;;
75854;SDS011;64502;59.976;30.316;2022-11-03T02:59:04;7.90;;;3.70;;
75854;SDS011;64502;59.976;30.316;2022-11-03T03:01:35;6.22;;;2.92;;
75854;SDS011;64502;59.976;30.316;2022-11-03T03:04:22;7.93;;;3.22;;
75854;SDS011;64502;59.976;30.316;2022-11-03T03:07:03;6.28;;;3.05;;
75854;SDS011;64502;59.976;30.316;2022-11-03T03:09:42;10.10;;;3.63;;
75854;SDS011;64502;59.976;30.316;2022-11-03T03:12:14;8.20;;;3.50;;
75854;SDS011;64502;59.976;30.316;2022-11-03T03:14:44;7.05;;;3.15;;
75854;SDS011;64502;59.976;30.316;2022-11-03T03:17:32;7.22;;;2.90;;
75854;SDS011;64502;59.976;30.316;2022-11-03T03:22:50;6.15;;;3.15;;
75854;SDS011;64502;59.976;30.316;2022-11-03T03:25:21;6.18;;;3.13;;
75854;SDS011;64502;59.976;30.316;2022-11-03T03:27:57;7.25;;;3.30;;
75854;SDS011;64502;59.976;30.316;2022-11-03T03:30:27;5.72;;;2.80;;
75854;SDS011;64502;59.976;30.316;2022-11-03T03:32:54;6.60;;;3.30;;
75854;SDS011;64502;59.976;30.316;2022-11-03T03:35:22;7.43;;;3.63;;
75854;SDS011;64502;59.976;30.316;2022-11-03T03:37:52;6.85;;;3.60;;
75854;SDS011;64502;59.976;30.316;2022-11-03T03:40:23;6.45;;;3.50;;
75854;SDS011;64502;59.976;30.316;2022-11-03T03:42:52;5.70;;;2.97;;
75854;SDS011;64502;59.976;30.316;2022-11-03T03:45:19;6.93;;;3.15;;
75854;SDS011;64502;59.976;30.316;2022-11-03T03:47:45;5.85;;;3.22;;
75854;SDS011;64502;59.976;30.316;2022-11-03T03:50:12;5.20;;;2.38;;
75854;SDS011;64502;59.976;30.316;2022-11-03T03:52:37;6.38;;;2.70;;
75854;SDS011;64502;59.976;30.316;2022-11-03T03:55:03;6.72;;;2.83;;
75854;SDS011;64502;59.976;30.316;2022-11-03T03:57:36;5.88;;;3.10;;
75854;SDS011;64502;59.976;30.316;2022-11-03T04:00:02;5.63;;;2.38;;
75854;SDS011;64502;59.976;30.316;2022-11-03T04:02:28;6.93;;;3.42;;
75854;SDS011;64502;59.976;30.316;2022-11-03T04:04:53;5.72;;;2.75;;
75854;SDS011;64502;59.976;30.316;2022-11-03T04:07:19;6.88;;;3.00;;
75854;SDS011;64502;59.976;30.316;2022-11-03T04:10:03;7.63;;;3.15;;
75854;SDS011;64502;59.976;30.316;2022-11-03T04:12:28;6.65;;;3.00;;
75854;SDS011;64502;59.976;30.316;2022-11-03T04:15:12;7.03;;;3.30;;
75854;SDS011;64502;59.976;30.316;2022-11-03T04:17:56;7.80;;;3.08;;
75854;SDS011;64502;59.976;30.316;2022-11-03T04:20:41;6.88;;;3.42;;
75854;SDS011;64502;59.976;30.316;2022-11-03T04:23:25;7.88;;;3.20;;
75854;SDS011;64502;59.976;30.316;2022-11-03T04:25:51;6.93;;;4.00;;
75854;SDS011;64502;59.976;30.316;2022-11-03T04:28:18;8.48;;;3.60;;
75854;SDS011;64502;59.976;30.316;2022-11-03T04:30:44;10.23;;;3.60;;
75854;SDS011;64502;59.976;30.316;2022-11-03T04:33:15;9.10;;;3.53;;
75854;SDS011;64502;59.976;30.316;2022-11-03T04:35:42;8.55;;;4.03;;
75854;SDS011;64502;59.976;30.316;2022-11-03T04:40:38;9.13;;;3.92;;
75854;SDS011;64502;59.976;30.316;2022-11-03T04:43:09;8.40;;;4.07;;
75854;SDS011;64502;59.976;30.316;2022-11-03T04:45:37;10.00;;;4.63;;
75854;SDS011;64502;59.976;30.316;2022-11-03T04:48:21;10.13;;;4.25;;
75854;SDS011;64502;59.976;30.316;2022-11-03T04:50:47;14.93;;;5.22;;
75854;SDS011;64502;59.976;30.316;2022-11-03T04:53:18;11.15;;;4.80;;
75854;SDS011;64502;59.976;30.316;2022-11-03T04:55:45;10.00;;;4.72;;
75854;SDS011;64502;59.976;30.316;2022-11-03T04:58:25;10.65;;;4.40;;
75854;SDS011;64502;59.976;30.316;2022-11-03T05:00:53;10.88;;;5.38;;
75854;SDS011;64502;59.976;30.316;2022-11-03T05:03:22;14.55;;;6.55;;
75854;SDS011;64502;59.976;30.316;2022-11-03T05:05:49;18.42;;;6.18;;
75854;SDS011;64502;59.976;30.316;2022-11-03T05:08:19;12.15;;;5.70;;
75854;SDS011;64502;59.976;30.316;2022-11-03T05:10:45;9.55;;;4.65;;
75854;SDS011;64502;59.976;30.316;2022-11-03T05:13:16;10.18;;;4.93;;
75854;SDS011;64502;59.976;30.316;2022-11-03T05:15:45;10.45;;;4.35;;
75854;SDS011;64502;59.976;30.316;2022-11-03T05:18:19;11.13;;;5.15;;
75854;SDS011;64502;59.976;30.316;2022-11-03T05:20:57;12.07;;;5.07;;
75854;SDS011;64502;59.976;30.316;2022-11-03T05:23:34;11.60;;;5.55;;
75854;SDS011;64502;59.976;30.316;2022-11-03T05:26:03;13.30;;;5.97;;
75854;SDS011;64502;59.976;30.316;2022-11-03T05:28:41;10.10;;;4.88;;
75854;SDS011;64502;59.976;30.316;2022-11-03T05:31:22;12.05;;;6.18;;
75854;SDS011;64502;59.976;30.316;2022-11-03T05:36:20;12.55;;;5.85;;
75854;SDS011;64502;59.976;30.316;2022-11-03T05:38:48;14.77;;;5.35;;
75854;SDS011;64502;59.976;30.316;2022-11-03T05:41:25;13.73;;;5.43;;
75854;SDS011;64502;59.976;30.316;2022-11-03T05:43:55;12.88;;;6.03;;
75854;SDS011;64502;59.976;30.316;2022-11-03T05:46:26;14.63;;;5.95;;
75854;SDS011;64502;59.976;30.316;2022-11-03T05:48:54;13.20;;;5.78;;
75854;SDS011;64502;59.976;30.316;2022-11-03T05:51:21;12.38;;;5.55;;
75854;SDS011;64502;59.976;30.316;2022-11-03T05:53:54;12.70;;;5.15;;
75854;SDS011;64502;59.976;30.316;2022-11-03T05:56:22;13.43;;;6.07;;
75854;SDS011;64502;59.976;30.316;2022-11-03T05:58:49;15.48;;;5.90;;
75854;SDS011;64502;59.976;30.316;2022-11-03T06:01:28;16.63;;;4.78;;
75854;SDS011;64502;59.976;30.316;2022-11-03T06:03:55;9.35;;;4.60;;
75854;SDS011;64502;59.976;30.316;2022-11-03T06:06:24;14.02;;;4.47;;
75854;SDS011;64502;59.976;30.316;2022-11-03T06:08:51;10.93;;;5.30;;
75854;SDS011;64502;59.976;30.316;2022-11-03T06:11:27;10.20;;;4.30;;
75854;SDS011;64502;59.976;30.316;2022-11-03T06:13:56;11.13;;;4.75;;
75854;SDS011;64502;59.976;30.316;2022-11-03T06:16:31;10.52;;;4.95;;
75854;SDS011;64502;59.976;30.316;2022-11-03T06:19:22;12.75;;;5.30;;
75854;SDS011;64502;59.976;30.316;2022-11-03T06:22:18;11.80;;;5.05;;
75854;SDS011;64502;59.976;30.316;2022-11-03T06:24:47;10.18;;;5.13;;
75854;SDS011;64502;59.976;30.316;2022-11-03T06:27:22;10.98;;;5.03;;
75854;SDS011;64502;59.976;30.316;2022-11-03T06:29:49;11.30;;;5.18;;
75854;SDS011;64502;59.976;30.316;2022-11-03T06:32:23;15.32;;;5.65;;
75854;SDS011;64502;59.976;30.316;2022-11-03T06:34:50;10.35;;;4.97;;
75854;SDS011;64502;59.976;30.316;2022-11-03T06:37:20;12.90;;;5.80;;
75854;SDS011;64502;59.976;30.316;2022-11-03T06:39:50;12.32;;;5.30;;
75854;SDS011;64502;59.976;30.316;2022-11-03T06:42:24;10.65;;;4.82;;
75854;SDS011;64502;59.976;30.316;2022-11-03T06:44:52;12.32;;;4.82;;
75854;SDS011;64502;59.976;30.316;2022-11-03T06:49:43;11.55;;;4.80;;
75854;SDS011;64502;59.976;30.316;2022-11-03T06:57:38;7.35;;;3.33;;
75854;SDS011;64502;59.976;30.316;2022-11-03T07:00:10;9.10;;;3.00;;
75854;SDS011;64502;59.976;30.316;2022-11-03T07:05:27;6.50;;;2.70;;
75854;SDS011;64502;59.976;30.316;2022-11-03T07:07:55;9.93;;;3.50;;
75854;SDS011;64502;59.976;30.316;2022-11-03T07:10:27;6.20;;;2.70;;
75854;SDS011;64502;59.976;30.316;2022-11-03T07:12:55;10.10;;;2.78;;
75854;SDS011;64502;59.976;30.316;2022-11-03T07:15:32;7.65;;;3.53;;
75854;SDS011;64502;59.976;30.316;2022-11-03T07:18:02;5.53;;;2.75;;
75854;SDS011;64502;59.976;30.316;2022-11-03T07:20:29;7.28;;;3.35;;
75854;SDS011;64502;59.976;30.316;2022-11-03T07:22:55;6.82;;;3.60;;
75854;SDS011;64502;59.976;30.316;2022-11-03T07:25:24;7.72;;;3.55;;
75854;SDS011;64502;59.976;30.316;2022-11-03T07:27:50;7.45;;;3.33;;
75854;SDS011;64502;59.976;30.316;2022-11-03T07:32:46;7.72;;;3.35;;
75854;SDS011;64502;59.976;30.316;2022-11-03T07:37:41;6.67;;;2.90;;
75854;SDS011;64502;59.976;30.316;2022-11-03T07:40:25;6.68;;;3.30;;
75854;SDS011;64502;59.976;30.316;2022-11-03T07:42:55;6.35;;;3.05;;
75854;SDS011;64502;59.976;30.316;2022-11-03T07:48:06;6.72;;;3.20;;
75854;SDS011;64502;59.976;30.316;2022-11-03T07:50:35;10.90;;;3.85;;
75854;SDS011;64502;59.976;30.316;2022-11-03T07:53:04;8.30;;;2.78;;
75854;SDS011;64502;59.976;30.316;2022-11-03T07:55:38;7.75;;;3.20;;
75854;SDS011;64502;59.976;30.316;2022-11-03T07:58:12;9.68;;;3.58;;
75854;SDS011;64502;59.976;30.316;2022-11-03T08:00:51;10.23;;;4.25;;
75854;SDS011;64502;59.976;30.316;2022-11-03T08:03:55;7.78;;;3.55;;
75854;SDS011;64502;59.976;30.316;2022-11-03T08:06:13;7.75;;;3.88;;
75854;SDS011;64502;59.976;30.316;2022-11-03T08:08:39;7.10;;;3.63;;
75854;SDS011;64502;59.976;30.316;2022-11-03T08:11:04;9.05;;;4.68;;
75854;SDS011;64502;59.976;30.316;2022-11-03T08:13:30;10.00;;;5.10;;
75854;SDS011;64502;59.976;30.316;2022-11-03T08:15:56;9.40;;;4.88;;
75854;SDS011;64502;59.976;30.316;2022-11-03T08:18:22;11.57;;;5.35;;
75854;SDS011;64502;59.976;30.316;2022-11-03T08:20:48;9.35;;;4.45;;
75854;SDS011;64502;59.976;30.316;2022-11-03T08:23:14;9.88;;;4.68;;
75854;SDS011;64502;59.976;30.316;2022-11-03T08:25:41;9.27;;;4.90;;
75854;SDS011;64502;59.976;30.316;2022-11-03T08:28:06;11.75;;;4.90;;
75854;SDS011;64502;59.976;30.316;2022-11-03T08:30:32;8.38;;;5.07;;
75854;SDS011;64502;59.976;30.316;2022-11-03T08:32:58;11.07;;;4.95;;
75854;SDS011;64502;59.976;30.316;2022-11-03T08:35:24;11.38;;;4.28;;
75854;SDS011;64502;59.976;30.316;2022-11-03T08:37:49;9.30;;;4.80;;
75854;SDS011;64502;59.976;30.316;2022-11-03T08:40:14;10.75;;;5.10;;
75854;SDS011;64502;59.976;30.316;2022-11-03T08:42:40;10.90;;;5.20;;
75854;SDS011;64502;59.976;30.316;2022-11-03T08:45:05;10.88;;;6.32;;
75854;SDS011;64502;59.976;30.316;2022-11-03T08:47:31;11.55;;;5.57;;
75854;SDS011;64502;59.976;30.316;2022-11-03T08:49:57;10.82;;;5.25;;
75854;SDS011;64502;59.976;30.316;2022-11-03T08:52:23;11.48;;;5.40;;
75854;SDS011;64502;59.976;30.316;2022-11-03T08:54:48;12.40;;;5.63;;
75854;SDS011;64502;59.976;30.316;2022-11-03T08:57:14;8.00;;;4.80;;
75854;SDS011;64502;59.976;30.316;2022-11-03T08:59:39;11.88;;;6.25;;
75854;SDS011;64502;59.976;30.316;2022-11-03T09:02:05;13.95;;;5.53;;
75854;SDS011;64502;59.976;30.316;2022-11-03T09:04:30;11.77;;;5.75;;
75854;SDS011;64502;59.976;30.316;2022-11-03T09:06:56;9.98;;;5.22;;
75854;SDS011;64502;59.976;30.316;2022-11-03T09:09:21;9.75;;;5.35;;
75854;SDS011;64502;59.976;30.316;2022-11-03T09:11:46;9.75;;;5.68;;
75854;SDS011;64502;59.976;30.316;2022-11-03T09:14:12;9.43;;;5.30;;
75854;SDS011;64502;59.976;30.316;2022-11-03T09:16:38;11.05;;;5.50;;
75854;SDS011;64502;59.976;30.316;2022-11-03T09:19:04;8.10;;;4.55;;
75854;SDS011;64502;59.976;30.316;2022-11-03T09:21:29;9.27;;;4.75;;
75854;SDS011;64502;59.976;30.316;2022-11-03T09:23:55;9.48;;;4.57;;
75854;SDS011;64502;59.976;30.316;2022-11-03T09:26:23;10.48;;;5.22;;
75854;SDS011;64502;59.976;30.316;2022-11-03T09:28:49;11.32;;;5.07;;
75854;SDS011;64502;59.976;30.316;2022-11-03T09:31:15;9.02;;;4.55;;
75854;SDS011;64502;59.976;30.316;2022-11-03T09:33:41;11.85;;;4.70;;
75854;SDS011;64502;59.976;30.316;2022-11-03T09:36:06;8.23;;;4.35;;
75854;SDS011;64502;59.976;30.316;2022-11-03T09:38:32;10.63;;;4.82;;
75854;SDS011;64502;59.976;30.316;2022-11-03T09:40:57;10.07;;;5.53;;
75854;SDS011;64502;59.976;30.316;2022-11-03T09:43:24;11.88;;;5.22;;
75854;SDS011;64502;59.976;30.316;2022-11-03T09:45:49;11.90;;;5.38;;
75854;SDS011;64502;59.976;30.316;2022-11-03T09:48:15;14.27;;;5.50;;
75854;SDS011;64502;59.976;30.316;2022-11-03T09:50:40;11.48;;;5.80;;
75854;SDS011;64502;59.976;30.316;2022-11-03T09:53:10;12.43;;;5.53;;
75854;SDS011;64502;59.976;30.316;2022-11-03T09:55:36;13.95;;;6.47;;
75854;SDS011;64502;59.976;30.316;2022-11-03T09:58:09;11.77;;;6.20;;
75854;SDS011;64502;59.976;30.316;2022-11-03T10:00:38;17.27;;;7.05;;
75854;SDS011;64502;59.976;30.316;2022-11-03T10:03:03;13.52;;;6.35;;
75854;SDS011;64502;59.976;30.316;2022-11-03T10:05:29;16.77;;;6.32;;
75854;SDS011;64502;59.976;30.316;2022-11-03T10:07:59;14.32;;;6.05;;
75854;SDS011;64502;59.976;30.316;2022-11-03T10:10:27;14.90;;;6.05;;
75854;SDS011;64502;59.976;30.316;2022-11-03T10:12:53;14.10;;;6.32;;
75854;SDS011;64502;59.976;30.316;2022-11-03T10:15:20;14.65;;;7.28;;
75854;SDS011;64502;59.976;30.316;2022-11-03T10:17:47;11.60;;;5.75;;
75854;SDS011;64502;59.976;30.316;2022-11-03T10:20:15;13.05;;;5.88;;
75854;SDS011;64502;59.976;30.316;2022-11-03T10:22:43;12.80;;;6.28;;
75854;SDS011;64502;59.976;30.316;2022-11-03T10:25:26;17.77;;;6.43;;
75854;SDS011;64502;59.976;30.316;2022-11-03T10:28:12;13.43;;;6.70;;
75854;SDS011;64502;59.976;30.316;2022-11-03T10:38:40;13.45;;;5.53;;
75854;SDS011;64502;59.976;30.316;2022-11-03T10:43:39;14.55;;;6.20;;
75854;SDS011;64502;59.976;30.316;2022-11-03T10:46:14;14.02;;;5.90;;
75854;SDS011;64502;59.976;30.316;2022-11-03T10:48:41;10.75;;;4.55;;
75854;SDS011;64502;59.976;30.316;2022-11-03T10:51:11;9.75;;;4.72;;
75854;SDS011;64502;59.976;30.316;2022-11-03T10:53:37;11.55;;;5.38;;
75854;SDS011;64502;59.976;30.316;2022-11-03T10:56:03;10.35;;;4.78;;
75854;SDS011;64502;59.976;30.316;2022-11-03T10:58:29;12.93;;;5.53;;
75854;SDS011;64502;59.976;30.316;2022-11-03T11:00:56;13.23;;;5.90;;
75854;SDS011;64502;59.976;30.316;2022-11-03T11:03:22;12.05;;;5.53;;
75854;SDS011;64502;59.976;30.316;2022-11-03T11:05:47;16.13;;;6.28;;
75854;SDS011;64502;59.976;30.316;2022-11-03T11:08:14;11.85;;;5.55;;
75854;SDS011;64502;59.976;30.316;2022-11-03T11:10:46;13.20;;;5.63;;
75854;SDS011;64502;59.976;30.316;2022-11-03T11:36:40;16.77;;;5.93;;
75854;SDS011;64502;59.976;30.316;2022-11-03T11:39:11;15.52;;;6.28;;
75854;SDS011;64502;59.976;30.316;2022-11-03T11:49:47;11.50;;;4.63;;
75854;SDS011;64502;59.976;30.316;2022-11-03T11:52:13;12.32;;;6.22;;
75854;SDS011;64502;59.976;30.316;2022-11-03T11:54:41;10.45;;;5.20;;
75854;SDS011;64502;59.976;30.316;2022-11-03T11:57:17;14.20;;;5.05;;
75854;SDS011;64502;59.976;30.316;2022-11-03T11:59:46;13.45;;;4.97;;
75854;SDS011;64502;59.976;30.316;2022-11-03T12:02:21;11.90;;;4.93;;
75854;SDS011;64502;59.976;30.316;2022-11-03T12:04:52;8.68;;;3.88;;
75854;SDS011;64502;59.976;30.316;2022-11-03T12:07:33;10.82;;;4.07;;
75854;SDS011;64502;59.976;30.316;2022-11-03T12:10:33;8.13;;;3.75;;
75854;SDS011;64502;59.976;30.316;2022-11-03T12:12:53;10.32;;;4.57;;
75854;SDS011;64502;59.976;30.316;2022-11-03T12:27:00;9.40;;;4.35;;
75854;SDS011;64502;59.976;30.316;2022-11-03T12:29:26;8.85;;;3.70;;
75854;SDS011;64502;59.976;30.316;2022-11-03T12:31:52;8.70;;;3.65;;
75854;SDS011;64502;59.976;30.316;2022-11-03T12:34:18;8.18;;;4.43;;
75854;SDS011;64502;59.976;30.316;2022-11-03T12:36:43;8.10;;;3.65;;
75854;SDS011;64502;59.976;30.316;2022-11-03T12:39:10;8.60;;;3.25;;
75854;SDS011;64502;59.976;30.316;2022-11-03T12:41:36;6.55;;;3.17;;
75854;SDS011;64502;59.976;30.316;2022-11-03T12:44:02;8.93;;;3.22;;
75854;SDS011;64502;59.976;30.316;2022-11-03T12:46:28;9.50;;;4.00;;
75854;SDS011;64502;59.976;30.316;2022-11-03T12:48:53;9.57;;;4.22;;
75854;SDS011;64502;59.976;30.316;2022-11-03T12:51:20;7.78;;;3.78;;
75854;SDS011;64502;59.976;30.316;2022-11-03T12:53:47;9.15;;;3.95;;
75854;SDS011;64502;59.976;30.316;2022-11-03T12:56:13;9.45;;;3.33;;
75854;SDS011;64502;59.976;30.316;2022-11-03T12:58:39;9.20;;;3.60;;
75854;SDS011;64502;59.976;30.316;2022-11-03T13:01:05;10.15;;;4.43;;
75854;SDS011;64502;59.976;30.316;2022-11-03T13:03:31;12.05;;;3.92;;
75854;SDS011;64502;59.976;30.316;2022-11-03T13:05:58;9.60;;;4.05;;
75854;SDS011;64502;59.976;30.316;2022-11-03T13:08:24;12.50;;;3.70;;
75854;SDS011;64502;59.976;30.316;2022-11-03T13:10:50;12.10;;;3.85;;
75854;SDS011;64502;59.976;30.316;2022-11-03T13:13:15;7.35;;;2.88;;
75854;SDS011;64502;59.976;30.316;2022-11-03T13:15:41;5.22;;;2.20;;
75854;SDS011;64502;59.976;30.316;2022-11-03T13:18:07;4.65;;;1.85;;
75854;SDS011;64502;59.976;30.316;2022-11-03T13:20:32;3.53;;;1.42;;
75854;SDS011;64502;59.976;30.316;2022-11-03T13:22:58;4.15;;;1.75;;
75854;SDS011;64502;59.976;30.316;2022-11-03T13:25:23;3.70;;;1.48;;
75854;SDS011;64502;59.976;30.316;2022-11-03T13:27:49;3.63;;;1.40;;
75854;SDS011;64502;59.976;30.316;2022-11-03T13:30:18;8.07;;;2.47;;
75854;SDS011;64502;59.976;30.316;2022-11-03T13:32:51;4.68;;;2.00;;
75854;SDS011;64502;59.976;30.316;2022-11-03T13:35:17;5.97;;;1.75;;
75854;SDS011;64502;59.976;30.316;2022-11-03T13:37:43;3.97;;;1.73;;
75854;SDS011;64502;59.976;30.316;2022-11-03T13:40:10;7.55;;;2.33;;
75854;SDS011;64502;59.976;30.316;2022-11-03T13:42:37;2.95;;;1.30;;
75854;SDS011;64502;59.976;30.316;2022-11-03T13:45:03;4.93;;;2.22;;
75854;SDS011;64502;59.976;30.316;2022-11-03T13:47:31;3.88;;;1.88;;
75854;SDS011;64502;59.976;30.316;2022-11-03T13:49:57;5.50;;;1.80;;
75854;SDS011;64502;59.976;30.316;2022-11-03T13:52:24;6.72;;;1.67;;
75854;SDS011;64502;59.976;30.316;2022-11-03T13:54:49;3.03;;;1.70;;
75854;SDS011;64502;59.976;30.316;2022-11-03T13:57:16;8.95;;;2.15;;
75854;SDS011;64502;59.976;30.316;2022-11-03T13:59:42;3.67;;;1.73;;
75854;SDS011;64502;59.976;30.316;2022-11-03T14:02:08;5.32;;;1.48;;
75854;SDS011;64502;59.976;30.316;2022-11-03T14:04:34;3.53;;;1.23;;
75854;SDS011;64502;59.976;30.316;2022-11-03T14:06:59;6.60;;;1.33;;
75854;SDS011;64502;59.976;30.316;2022-11-03T14:09:25;4.13;;;1.23;;
75854;SDS011;64502;59.976;30.316;2022-11-03T14:11:50;5.95;;;1.70;;
75854;SDS011;64502;59.976;30.316;2022-11-03T14:14:34;3.55;;;1.42;;
75854;SDS011;64502;59.976;30.316;2022-11-03T14:17:00;3.60;;;1.40;;
75854;SDS011;64502;59.976;30.316;2022-11-03T14:19:25;4.38;;;2.00;;
75854;SDS011;64502;59.976;30.316;2022-11-03T14:21:51;6.10;;;2.35;;
75854;SDS011;64502;59.976;30.316;2022-11-03T14:24:16;4.50;;;1.40;;
75854;SDS011;64502;59.976;30.316;2022-11-03T14:26:42;7.30;;;2.75;;
75854;SDS011;64502;59.976;30.316;2022-11-03T14:29:07;7.15;;;2.10;;
75854;SDS011;64502;59.976;30.316;2022-11-03T14:31:33;5.38;;;2.03;;
75854;SDS011;64502;59.976;30.316;2022-11-03T14:33:59;3.83;;;1.67;;
75854;SDS011;64502;59.976;30.316;2022-11-03T14:36:24;3.45;;;1.23;;
75854;SDS011;64502;59.976;30.316;2022-11-03T14:38:50;8.95;;;1.83;;
75854;SDS011;64502;59.976;30.316;2022-11-03T14:41:16;4.50;;;1.10;;
75854;SDS011;64502;59.976;30.316;2022-11-03T14:44:00;3.33;;;1.10;;
75854;SDS011;64502;59.976;30.316;2022-11-03T14:46:27;5.70;;;1.35;;
75854;SDS011;64502;59.976;30.316;2022-11-03T14:48:52;6.85;;;1.48;;
75854;SDS011;64502;59.976;30.316;2022-11-03T14:51:18;4.07;;;1.42;;
75854;SDS011;64502;59.976;30.316;2022-11-03T14:53:44;4.88;;;1.27;;
75854;SDS011;64502;59.976;30.316;2022-11-03T14:56:09;4.85;;;1.67;;
75854;SDS011;64502;59.976;30.316;2022-11-03T14:58:36;3.08;;;1.20;;
75854;SDS011;64502;59.976;30.316;2022-11-03T15:01:02;3.88;;;1.30;;
75854;SDS011;64502;59.976;30.316;2022-11-03T15:03:27;2.53;;;1.10;;
75854;SDS011;64502;59.976;30.316;2022-11-03T15:05:53;3.13;;;0.90;;
75854;SDS011;64502;59.976;30.316;2022-11-03T15:08:20;4.03;;;1.27;;
75854;SDS011;64502;59.976;30.316;2022-11-03T15:10:46;3.97;;;1.20;;
75854;SDS011;64502;59.976;30.316;2022-11-03T15:13:12;7.15;;;1.88;;
75854;SDS011;64502;59.976;30.316;2022-11-03T15:15:37;4.80;;;1.63;;
75854;SDS011;64502;59.976;30.316;2022-11-03T15:18:05;4.45;;;1.73;;
75854;SDS011;64502;59.976;30.316;2022-11-03T15:20:31;3.35;;;1.50;;
75854;SDS011;64502;59.976;30.316;2022-11-03T15:22:59;4.35;;;1.70;;
75854;SDS011;64502;59.976;30.316;2022-11-03T15:25:26;6.55;;;2.20;;
75854;SDS011;64502;59.976;30.316;2022-11-03T15:27:51;6.13;;;2.67;;
75854;SDS011;64502;59.976;30.316;2022-11-03T15:30:17;8.68;;;2.67;;
75854;SDS011;64502;59.976;30.316;2022-11-03T15:32:42;5.70;;;2.20;;
75854;SDS011;64502;59.976;30.316;2022-11-03T15:35:08;6.60;;;2.05;;
75854;SDS011;64502;59.976;30.316;2022-11-03T15:37:33;5.05;;;2.15;;
75854;SDS011;64502;59.976;30.316;2022-11-03T15:39:59;7.93;;;2.20;;
75854;SDS011;64502;59.976;30.316;2022-11-03T15:42:24;4.95;;;2.13;;
75854;SDS011;64502;59.976;30.316;2022-11-03T15:44:50;8.85;;;2.72;;
75854;SDS011;64502;59.976;30.316;2022-11-03T15:47:15;17.65;;;3.15;;
75854;SDS011;64502;59.976;30.316;2022-11-03T15:49:41;7.20;;;2.20;;
75854;SDS011;64502;59.976;30.316;2022-11-03T15:52:07;6.10;;;2.50;;
75854;SDS011;64502;59.976;30.316;2022-11-03T15:54:34;8.98;;;2.38;;
75854;SDS011;64502;59.976;30.316;2022-11-03T15:56:59;6.25;;;2.45;;
75854;SDS011;64502;59.976;30.316;2022-11-03T15:59:25;5.97;;;2.45;;
75854;SDS011;64502;59.976;30.316;2022-11-03T16:01:50;5.25;;;2.35;;
75854;SDS011;64502;59.976;30.316;2022-11-03T16:04:16;5.72;;;2.05;;
75854;SDS011;64502;59.976;30.316;2022-11-03T16:06:41;4.90;;;1.70;;